Blue Grass Airport
KLEX : now visible

Airfield :











YOU CAN JOIN US ON...

 
LOGIN :

Register | Disclaimer

   EN    FR    IT 

 









Legend :    VFR   Marginal VFR   IFR   Intensive IFR   Very Intensive IFR
Visi :
Ceiling :
>= 8 km
>= 3000ft
5 to 8 km
1000 to 3000 ft
1500m to 5 km
500 to 1000 ft
800 to 1500m
200 to 500 ft
< 800m
< 200 ft
Symbols :   Thunderstorms  Fog  Heavy snow  Heavy precipitations  Wind > 20 kt






- Airport Elevation : 979 ft
- IATA code : LEX


KLEX - Blue Grass

CURRENT METAR :
  • 111954Z 23013G22KT 10SM BKN050 OVC065 18/06 A2993 RMK AO2 SLP132 T01780061

EXPIRED METARs :
  • 111854Z 22017KT 10SM SCT055 18/06 A2993 RMK AO2 PK WND 22028/1826 SLP133 T01780056
  • 111754Z 22015G24KT 10SM FEW055 SCT120 18/06 A2995 RMK AO2 SLP137 T01830056 10189 20083 58028

TAF KLEX
Valid from the 11 at 18:00 until the 12 at 18:00 UTC


111722Z 1118/1218 22013G19KT P6SM BKN050
FM112100 29012G20KT 3SM BR VCSH OVC016
FM112200 32014G22KT 2SM -RA OVC008
TEMPO 1123/1203 1SM RA OVC004
FM120300 32018G25KT 2SM -SN BKN007 OVC015
TEMPO 1203/1205 1/2SM SN FG
FM121000 32015KT P6SM OVC015



MET'MAP, your aeronautical weather chart ! - Copyright ORBIFLY December 2007 - Disclaimer

ORBIFLY MET'MAP TEAM :

Programming & Development : Alexandra Zaïnal
Concept & Development : Baudouin d'Aumeries
Co-Development & Prog : Marc-Olivier Méhu
Technical & hardware support : Manuel Goepfert

Contact : metmap@orbifly.com




SOURCES & CREDITS :

   NOAA       Earth
Advisory